sensor_id;sensor_type;location;lat;lon;timestamp;temperature;humidity
70676;DHT22;59069;52.242;20.900;2023-10-13T00:01:20;9.52;89.36
70676;DHT22;59069;52.242;20.900;2023-10-13T00:03:45;9.51;89.46
70676;DHT22;59069;52.242;20.900;2023-10-13T00:06:10;9.51;89.40
70676;DHT22;59069;52.242;20.900;2023-10-13T00:08:36;9.51;89.39
70676;DHT22;59069;52.242;20.900;2023-10-13T00:11:05;9.48;89.37
70676;DHT22;59069;52.242;20.900;2023-10-13T00:13:32;9.45;89.47
70676;DHT22;59069;52.242;20.900;2023-10-13T00:16:17;9.45;89.49
70676;DHT22;59069;52.242;20.900;2023-10-13T00:18:46;9.42;89.57
70676;DHT22;59069;52.242;20.900;2023-10-13T00:21:11;9.41;89.64
70676;DHT22;59069;52.242;20.900;2023-10-13T00:23:55;9.42;89.63
70676;DHT22;59069;52.242;20.900;2023-10-13T00:26:22;9.37;89.68
70676;DHT22;59069;52.242;20.900;2023-10-13T00:28:56;9.38;89.73
70676;DHT22;59069;52.242;20.900;2023-10-13T00:31:41;9.39;89.70
70676;DHT22;59069;52.242;20.900;2023-10-13T00:34:08;9.39;89.68
70676;DHT22;59069;52.242;20.900;2023-10-13T00:36:54;9.41;89.68
70676;DHT22;59069;52.242;20.900;2023-10-13T00:39:45;9.41;89.66
70676;DHT22;59069;52.242;20.900;2023-10-13T00:42:14;9.38;89.72
70676;DHT22;59069;52.242;20.900;2023-10-13T00:44:49;9.38;89.77
70676;DHT22;59069;52.242;20.900;2023-10-13T00:47:16;9.35;89.82
70676;DHT22;59069;52.242;20.900;2023-10-13T00:49:47;9.35;89.77
70676;DHT22;59069;52.242;20.900;2023-10-13T00:52:13;9.35;89.77
70676;DHT22;59069;52.242;20.900;2023-10-13T00:54:41;9.35;89.78
70676;DHT22;59069;52.242;20.900;2023-10-13T00:57:12;9.34;89.70
70676;DHT22;59069;52.242;20.900;2023-10-13T00:59:55;9.35;89.60
70676;DHT22;59069;52.242;20.900;2023-10-13T01:02:20;9.31;89.51
70676;DHT22;59069;52.242;20.900;2023-10-13T01:05:04;9.32;89.51
70676;DHT22;59069;52.242;20.900;2023-10-13T01:07:29;9.32;89.53
70676;DHT22;59069;52.242;20.900;2023-10-13T01:09:55;9.32;89.52
70676;DHT22;59069;52.242;20.900;2023-10-13T01:12:21;9.27;89.53
70676;DHT22;59069;52.242;20.900;2023-10-13T01:14:49;9.28;89.51
70676;DHT22;59069;52.242;20.900;2023-10-13T01:17:15;9.27;89.55
70676;DHT22;59069;52.242;20.900;2023-10-13T01:19:40;9.26;89.50
70676;DHT22;59069;52.242;20.900;2023-10-13T01:22:10;9.23;89.59
70676;DHT22;59069;52.242;20.900;2023-10-13T01:24:36;9.24;89.52
70676;DHT22;59069;52.242;20.900;2023-10-13T01:27:06;9.24;89.54
70676;DHT22;59069;52.242;20.900;2023-10-13T01:29:45;9.24;89.53
70676;DHT22;59069;52.242;20.900;2023-10-13T01:32:15;9.23;89.48
70676;DHT22;59069;52.242;20.900;2023-10-13T01:34:40;9.23;89.60
70676;DHT22;59069;52.242;20.900;2023-10-13T01:37:11;9.18;89.68
70676;DHT22;59069;52.242;20.900;2023-10-13T01:39:36;9.20;89.75
70676;DHT22;59069;52.242;20.900;2023-10-13T01:42:02;9.20;89.74
70676;DHT22;59069;52.242;20.900;2023-10-13T01:44:27;9.18;89.68
70676;DHT22;59069;52.242;20.900;2023-10-13T01:47:04;9.17;89.61
70676;DHT22;59069;52.242;20.900;2023-10-13T01:49:35;9.18;89.69
70676;DHT22;59069;52.242;20.900;2023-10-13T01:52:08;9.18;89.83
70676;DHT22;59069;52.242;20.900;2023-10-13T01:54:37;9.20;89.87
70676;DHT22;59069;52.242;20.900;2023-10-13T01:57:06;9.21;89.91
70676;DHT22;59069;52.242;20.900;2023-10-13T01:59:32;9.23;90.02
70676;DHT22;59069;52.242;20.900;2023-10-13T02:01:57;9.27;90.07
70676;DHT22;59069;52.242;20.900;2023-10-13T02:04:27;9.27;90.06
70676;DHT22;59069;52.242;20.900;2023-10-13T02:06:52;9.30;89.95
70676;DHT22;59069;52.242;20.900;2023-10-13T02:09:17;9.30;89.80
70676;DHT22;59069;52.242;20.900;2023-10-13T02:11:51;9.32;89.67
70676;DHT22;59069;52.242;20.900;2023-10-13T02:14:20;9.31;89.53
70676;DHT22;59069;52.242;20.900;2023-10-13T02:16:48;9.35;89.45
70676;DHT22;59069;52.242;20.900;2023-10-13T02:19:16;9.34;89.37
70676;DHT22;59069;52.242;20.900;2023-10-13T02:21:44;9.32;89.41
70676;DHT22;59069;52.242;20.900;2023-10-13T02:24:11;9.34;89.45
70676;DHT22;59069;52.242;20.900;2023-10-13T02:26:43;9.31;89.43
70676;DHT22;59069;52.242;20.900;2023-10-13T02:29:09;9.34;89.31
70676;DHT22;59069;52.242;20.900;2023-10-13T02:31:38;9.32;89.11
70676;DHT22;59069;52.242;20.900;2023-10-13T02:34:04;9.31;89.00
70676;DHT22;59069;52.242;20.900;2023-10-13T02:36:36;9.30;88.92
70676;DHT22;59069;52.242;20.900;2023-10-13T02:39:05;9.28;88.90
70676;DHT22;59069;52.242;20.900;2023-10-13T02:41:36;9.28;88.97
70676;DHT22;59069;52.242;20.900;2023-10-13T02:44:06;9.28;89.02
70676;DHT22;59069;52.242;20.900;2023-10-13T02:46:32;9.24;88.93
70676;DHT22;59069;52.242;20.900;2023-10-13T02:49:01;9.26;88.78
70676;DHT22;59069;52.242;20.900;2023-10-13T02:51:34;9.21;88.67
70676;DHT22;59069;52.242;20.900;2023-10-13T02:54:04;9.17;88.67
70676;DHT22;59069;52.242;20.900;2023-10-13T02:56:35;9.17;88.83
70676;DHT22;59069;52.242;20.900;2023-10-13T02:59:02;9.13;88.91
70676;DHT22;59069;52.242;20.900;2023-10-13T03:01:34;9.14;89.01
70676;DHT22;59069;52.242;20.900;2023-10-13T03:04:03;9.11;89.03
70676;DHT22;59069;52.242;20.900;2023-10-13T03:06:33;9.16;89.04
70676;DHT22;59069;52.242;20.900;2023-10-13T03:08:59;9.17;89.05
70676;DHT22;59069;52.242;20.900;2023-10-13T03:11:43;9.21;89.01
70676;DHT22;59069;52.242;20.900;2023-10-13T03:14:13;9.23;88.96
70676;DHT22;59069;52.242;20.900;2023-10-13T03:16:52;9.21;88.98
70676;DHT22;59069;52.242;20.900;2023-10-13T03:19:18;9.20;88.99
70676;DHT22;59069;52.242;20.900;2023-10-13T03:21:45;9.18;89.07
70676;DHT22;59069;52.242;20.900;2023-10-13T03:24:20;9.24;89.05
70676;DHT22;59069;52.242;20.900;2023-10-13T03:26:48;9.26;89.05
70676;DHT22;59069;52.242;20.900;2023-10-13T03:29:17;9.23;88.96
70676;DHT22;59069;52.242;20.900;2023-10-13T03:31:47;9.24;88.85
70676;DHT22;59069;52.242;20.900;2023-10-13T03:34:20;9.21;88.84
70676;DHT22;59069;52.242;20.900;2023-10-13T03:36:45;9.23;88.87
70676;DHT22;59069;52.242;20.900;2023-10-13T03:39:23;9.18;88.85
70676;DHT22;59069;52.242;20.900;2023-10-13T03:41:57;9.20;88.90
70676;DHT22;59069;52.242;20.900;2023-10-13T03:44:22;9.18;88.97
70676;DHT22;59069;52.242;20.900;2023-10-13T03:46:48;9.16;88.98
70676;DHT22;59069;52.242;20.900;2023-10-13T03:49:17;9.14;88.95
70676;DHT22;59069;52.242;20.900;2023-10-13T03:51:49;9.14;88.95
70676;DHT22;59069;52.242;20.900;2023-10-13T03:54:15;9.11;89.09
70676;DHT22;59069;52.242;20.900;2023-10-13T03:56:42;9.11;89.07
70676;DHT22;59069;52.242;20.900;2023-10-13T03:59:10;9.08;89.00
70676;DHT22;59069;52.242;20.900;2023-10-13T04:01:43;9.07;88.98
70676;DHT22;59069;52.242;20.900;2023-10-13T04:04:13;9.03;89.05
70676;DHT22;59069;52.242;20.900;2023-10-13T04:06:55;9.07;89.19
70676;DHT22;59069;52.242;20.900;2023-10-13T04:09:39;9.07;89.40
70676;DHT22;59069;52.242;20.900;2023-10-13T04:12:13;9.06;89.59
70676;DHT22;59069;52.242;20.900;2023-10-13T04:15:05;9.10;89.57
70676;DHT22;59069;52.242;20.900;2023-10-13T04:17:31;9.14;89.48
70676;DHT22;59069;52.242;20.900;2023-10-13T04:20:06;9.20;89.35
70676;DHT22;59069;52.242;20.900;2023-10-13T04:22:42;9.21;89.28
70676;DHT22;59069;52.242;20.900;2023-10-13T04:28:08;9.28;89.44
70676;DHT22;59069;52.242;20.900;2023-10-13T04:30:44;9.31;89.45
70676;DHT22;59069;52.242;20.900;2023-10-13T04:38:44;9.38;89.66
70676;DHT22;59069;52.242;20.900;2023-10-13T04:41:39;9.44;89.68
70676;DHT22;59069;52.242;20.900;2023-10-13T04:44:17;9.45;89.57
70676;DHT22;59069;52.242;20.900;2023-10-13T04:46:58;9.44;89.45
70676;DHT22;59069;52.242;20.900;2023-10-13T04:49:27;9.49;89.29
70676;DHT22;59069;52.242;20.900;2023-10-13T04:51:57;9.49;89.12
70676;DHT22;59069;52.242;20.900;2023-10-13T04:54:45;9.49;89.11
70676;DHT22;59069;52.242;20.900;2023-10-13T04:57:24;9.48;89.08
70676;DHT22;59069;52.242;20.900;2023-10-13T05:00:08;9.48;89.22
70676;DHT22;59069;52.242;20.900;2023-10-13T05:02:38;9.51;89.16
70676;DHT22;59069;52.242;20.900;2023-10-13T05:05:10;9.51;89.11
70676;DHT22;59069;52.242;20.900;2023-10-13T05:07:51;9.52;89.07
70676;DHT22;59069;52.242;20.900;2023-10-13T05:10:36;9.51;89.08
70676;DHT22;59069;52.242;20.900;2023-10-13T05:13:21;9.49;89.13
70676;DHT22;59069;52.242;20.900;2023-10-13T05:16:05;9.52;89.13
70676;DHT22;59069;52.242;20.900;2023-10-13T05:18:49;9.54;89.00
70676;DHT22;59069;52.242;20.900;2023-10-13T05:21:33;9.52;88.92
70676;DHT22;59069;52.242;20.900;2023-10-13T05:24:17;9.54;89.09
70676;DHT22;59069;52.242;20.900;2023-10-13T05:27:01;9.57;89.09
70676;DHT22;59069;52.242;20.900;2023-10-13T05:29:47;9.62;89.14
70676;DHT22;59069;52.242;20.900;2023-10-13T05:32:31;9.61;89.08
70676;DHT22;59069;52.242;20.900;2023-10-13T05:35:15;9.59;88.96
70676;DHT22;59069;52.242;20.900;2023-10-13T05:38:00;9.63;89.08
70676;DHT22;59069;52.242;20.900;2023-10-13T05:43:37;9.67;88.96
70676;DHT22;59069;52.242;20.900;2023-10-13T05:46:21;9.68;89.16
70676;DHT22;59069;52.242;20.900;2023-10-13T05:48:53;9.72;89.25
70676;DHT22;59069;52.242;20.900;2023-10-13T05:51:29;9.77;89.30
70676;DHT22;59069;52.242;20.900;2023-10-13T05:54:01;9.83;89.30
70676;DHT22;59069;52.242;20.900;2023-10-13T05:56:49;9.89;89.31
70676;DHT22;59069;52.242;20.900;2023-10-13T05:59:37;9.98;89.46
70676;DHT22;59069;52.242;20.900;2023-10-13T06:02:23;10.06;89.44
70676;DHT22;59069;52.242;20.900;2023-10-13T06:05:08;10.16;89.67
70676;DHT22;59069;52.242;20.900;2023-10-13T06:07:53;10.30;89.65
70676;DHT22;59069;52.242;20.900;2023-10-13T06:10:37;10.39;89.46
70676;DHT22;59069;52.242;20.900;2023-10-13T06:13:22;10.47;89.31
70676;DHT22;59069;52.242;20.900;2023-10-13T06:16:10;10.61;89.13
70676;DHT22;59069;52.242;20.900;2023-10-13T06:18:55;10.64;88.96
70676;DHT22;59069;52.242;20.900;2023-10-13T06:21:40;10.71;88.89
70676;DHT22;59069;52.242;20.900;2023-10-13T06:24:23;10.78;89.12
70676;DHT22;59069;52.242;20.900;2023-10-13T06:27:08;10.85;89.25
70676;DHT22;59069;52.242;20.900;2023-10-13T06:29:51;10.92;89.19
70676;DHT22;59069;52.242;20.900;2023-10-13T06:32:19;11.05;89.29
70676;DHT22;59069;52.242;20.900;2023-10-13T06:34:45;11.11;89.41
70676;DHT22;59069;52.242;20.900;2023-10-13T06:37:16;11.23;89.27
70676;DHT22;59069;52.242;20.900;2023-10-13T06:39:54;11.44;89.43
70676;DHT22;59069;52.242;20.900;2023-10-13T06:42:27;11.66;89.31
70676;DHT22;59069;52.242;20.900;2023-10-13T06:44:55;11.97;89.03
70676;DHT22;59069;52.242;20.900;2023-10-13T06:47:21;12.04;87.68
70676;DHT22;59069;52.242;20.900;2023-10-13T06:49:48;12.16;87.71
70676;DHT22;59069;52.242;20.900;2023-10-13T06:52:17;12.23;87.02
70676;DHT22;59069;52.242;20.900;2023-10-13T06:54:43;12.34;86.90
70676;DHT22;59069;52.242;20.900;2023-10-13T06:57:09;12.42;86.54
70676;DHT22;59069;52.242;20.900;2023-10-13T06:59:46;12.51;86.11
70676;DHT22;59069;52.242;20.900;2023-10-13T07:02:11;12.61;85.80
70676;DHT22;59069;52.242;20.900;2023-10-13T07:04:47;12.68;85.45
70676;DHT22;59069;52.242;20.900;2023-10-13T07:07:12;12.72;85.02
70676;DHT22;59069;52.242;20.900;2023-10-13T07:09:41;12.73;84.31
70676;DHT22;59069;52.242;20.900;2023-10-13T07:12:15;12.69;83.66
70676;DHT22;59069;52.242;20.900;2023-10-13T07:15:07;12.65;83.53
70676;DHT22;59069;52.242;20.900;2023-10-13T07:17:41;12.66;83.56
70676;DHT22;59069;52.242;20.900;2023-10-13T07:20:11;12.62;83.43
70676;DHT22;59069;52.242;20.900;2023-10-13T07:22:54;12.62;83.59
70676;DHT22;59069;52.242;20.900;2023-10-13T07:25:32;12.68;83.45
70676;DHT22;59069;52.242;20.900;2023-10-13T07:28:03;12.71;83.58
70676;DHT22;59069;52.242;20.900;2023-10-13T07:30:29;12.78;83.76
70676;DHT22;59069;52.242;20.900;2023-10-13T07:33:05;12.85;83.13
70676;DHT22;59069;52.242;20.900;2023-10-13T07:35:31;12.83;82.98
70676;DHT22;59069;52.242;20.900;2023-10-13T07:38:01;12.86;82.88
70676;DHT22;59069;52.242;20.900;2023-10-13T07:40:27;12.85;82.53
70676;DHT22;59069;52.242;20.900;2023-10-13T07:42:56;12.83;82.01
70676;DHT22;59069;52.242;20.900;2023-10-13T07:45:36;12.81;81.74
70676;DHT22;59069;52.242;20.900;2023-10-13T07:48:09;12.73;81.93
70676;DHT22;59069;52.242;20.900;2023-10-13T07:50:42;12.68;82.10
70676;DHT22;59069;52.242;20.900;2023-10-13T07:53:09;12.63;82.23
70676;DHT22;59069;52.242;20.900;2023-10-13T07:55:50;12.65;82.47
70676;DHT22;59069;52.242;20.900;2023-10-13T07:58:23;12.62;82.45
70676;DHT22;59069;52.242;20.900;2023-10-13T08:00:52;12.61;82.31
70676;DHT22;59069;52.242;20.900;2023-10-13T08:03:40;12.59;82.64
70676;DHT22;59069;52.242;20.900;2023-10-13T08:06:10;12.68;82.82
70676;DHT22;59069;52.242;20.900;2023-10-13T08:08:36;12.72;82.82
70676;DHT22;59069;52.242;20.900;2023-10-13T08:11:08;12.78;82.79
70676;DHT22;59069;52.242;20.900;2023-10-13T08:13:41;12.86;82.76
70676;DHT22;59069;52.242;20.900;2023-10-13T08:16:12;12.88;82.35
70676;DHT22;59069;52.242;20.900;2023-10-13T08:18:47;12.86;82.23
70676;DHT22;59069;52.242;20.900;2023-10-13T08:21:17;12.86;82.16
70676;DHT22;59069;52.242;20.900;2023-10-13T08:23:43;12.86;82.46
70676;DHT22;59069;52.242;20.900;2023-10-13T08:26:27;12.89;82.71
70676;DHT22;59069;52.242;20.900;2023-10-13T08:29:05;12.89;82.51
70676;DHT22;59069;52.242;20.900;2023-10-13T08:31:50;12.88;82.51
70676;DHT22;59069;52.242;20.900;2023-10-13T08:34:35;12.82;82.62
70676;DHT22;59069;52.242;20.900;2023-10-13T08:37:13;12.81;82.97
70676;DHT22;59069;52.242;20.900;2023-10-13T08:39:59;12.85;83.38
70676;DHT22;59069;52.242;20.900;2023-10-13T08:42:33;12.91;83.59
70676;DHT22;59069;52.242;20.900;2023-10-13T08:45:08;12.99;84.04
70676;DHT22;59069;52.242;20.900;2023-10-13T08:47:57;13.07;83.72
70676;DHT22;59069;52.242;20.900;2023-10-13T08:50:44;13.12;83.43
70676;DHT22;59069;52.242;20.900;2023-10-13T08:56:07;13.22;83.25
70676;DHT22;59069;52.242;20.900;2023-10-13T08:58:47;13.32;83.37
70676;DHT22;59069;52.242;20.900;2023-10-13T09:01:25;13.40;83.41
70676;DHT22;59069;52.242;20.900;2023-10-13T09:04:17;13.55;83.54
70676;DHT22;59069;52.242;20.900;2023-10-13T09:06:55;13.67;83.27
70676;DHT22;59069;52.242;20.900;2023-10-13T09:12:23;13.82;82.35
70676;DHT22;59069;52.242;20.900;2023-10-13T09:15:02;13.94;82.49
70676;DHT22;59069;52.242;20.900;2023-10-13T09:17:32;14.08;81.87
70676;DHT22;59069;52.242;20.900;2023-10-13T09:20:07;14.22;81.72
70676;DHT22;59069;52.242;20.900;2023-10-13T09:22:53;14.24;80.75
70676;DHT22;59069;52.242;20.900;2023-10-13T09:25:36;14.24;80.14
70676;DHT22;59069;52.242;20.900;2023-10-13T09:28:09;14.24;79.98
70676;DHT22;59069;52.242;20.900;2023-10-13T09:30:50;14.26;79.91
70676;DHT22;59069;52.242;20.900;2023-10-13T09:33:26;14.35;79.85
70676;DHT22;59069;52.242;20.900;2023-10-13T09:36:15;14.35;79.59
70676;DHT22;59069;52.242;20.900;2023-10-13T09:38:42;14.36;79.33
70676;DHT22;59069;52.242;20.900;2023-10-13T09:41:13;14.37;79.09
70676;DHT22;59069;52.242;20.900;2023-10-13T09:43:51;14.40;79.34
70676;DHT22;59069;52.242;20.900;2023-10-13T09:46:20;14.50;79.93
70676;DHT22;59069;52.242;20.900;2023-10-13T09:48:49;14.69;79.81
70676;DHT22;59069;52.242;20.900;2023-10-13T09:51:30;14.84;79.29
70676;DHT22;59069;52.242;20.900;2023-10-13T09:54:18;15.06;79.71
70676;DHT22;59069;52.242;20.900;2023-10-13T09:56:48;15.18;78.63
70676;DHT22;59069;52.242;20.900;2023-10-13T10:02:00;15.37;77.79
70676;DHT22;59069;52.242;20.900;2023-10-13T10:04:34;15.51;78.01
70676;DHT22;59069;52.242;20.900;2023-10-13T10:07:09;15.73;79.04
70676;DHT22;59069;52.242;20.900;2023-10-13T10:09:35;15.88;77.34
70676;DHT22;59069;52.242;20.900;2023-10-13T10:15:49;15.89;75.73
70676;DHT22;59069;52.242;20.900;2023-10-13T10:17:55;15.86;75.52
70676;DHT22;59069;52.242;20.900;2023-10-13T10:20:31;15.86;75.85
70676;DHT22;59069;52.242;20.900;2023-10-13T10:23:23;15.89;76.19
70676;DHT22;59069;52.242;20.900;2023-10-13T10:25:49;15.97;76.48
70676;DHT22;59069;52.242;20.900;2023-10-13T10:28:17;16.09;76.18
70676;DHT22;59069;52.242;20.900;2023-10-13T10:30:44;16.13;75.92
70676;DHT22;59069;52.242;20.900;2023-10-13T10:33:11;16.10;75.60
70676;DHT22;59069;52.242;20.900;2023-10-13T10:35:45;16.10;75.73
70676;DHT22;59069;52.242;20.900;2023-10-13T10:38:14;16.07;75.59
70676;DHT22;59069;52.242;20.900;2023-10-13T10:41:03;16.06;75.65
70676;DHT22;59069;52.242;20.900;2023-10-13T10:43:39;16.06;75.88
70676;DHT22;59069;52.242;20.900;2023-10-13T10:46:26;16.09;75.99
70676;DHT22;59069;52.242;20.900;2023-10-13T10:49:05;16.09;76.11
70676;DHT22;59069;52.242;20.900;2023-10-13T10:51:31;16.10;76.33
70676;DHT22;59069;52.242;20.900;2023-10-13T10:53:59;16.17;76.51
70676;DHT22;59069;52.242;20.900;2023-10-13T10:56:36;16.27;76.65
70676;DHT22;59069;52.242;20.900;2023-10-13T10:59:06;16.37;76.64
70676;DHT22;59069;52.242;20.900;2023-10-13T11:01:42;16.48;76.46
70676;DHT22;59069;52.242;20.900;2023-10-13T11:04:13;16.58;76.19
70676;DHT22;59069;52.242;20.900;2023-10-13T11:06:58;16.64;75.92
70676;DHT22;59069;52.242;20.900;2023-10-13T11:09:31;16.72;75.76
70676;DHT22;59069;52.242;20.900;2023-10-13T11:14:41;16.91;75.58
70676;DHT22;59069;52.242;20.900;2023-10-13T11:17:07;17.09;75.52
70676;DHT22;59069;52.242;20.900;2023-10-13T11:19:45;17.22;75.21
70676;DHT22;59069;52.242;20.900;2023-10-13T11:22:15;17.30;74.93
70676;DHT22;59069;52.242;20.900;2023-10-13T11:25:02;17.35;74.30
70676;DHT22;59069;52.242;20.900;2023-10-13T11:27:37;17.33;74.09
70676;DHT22;59069;52.242;20.900;2023-10-13T11:30:13;17.30;74.27
70676;DHT22;59069;52.242;20.900;2023-10-13T11:33:30;17.29;74.32
70676;DHT22;59069;52.242;20.900;2023-10-13T11:35:38;17.35;74.53
70676;DHT22;59069;52.242;20.900;2023-10-13T11:41:03;17.32;74.55
70676;DHT22;59069;52.242;20.900;2023-10-13T11:46:01;17.38;74.87
70676;DHT22;59069;52.242;20.900;2023-10-13T11:48:33;17.39;74.74
70676;DHT22;59069;52.242;20.900;2023-10-13T11:51:06;17.39;74.74
70676;DHT22;59069;52.242;20.900;2023-10-13T11:53:35;17.43;74.82
70676;DHT22;59069;52.242;20.900;2023-10-13T11:56:04;17.46;74.91
70676;DHT22;59069;52.242;20.900;2023-10-13T11:58:40;17.50;74.72
70676;DHT22;59069;52.242;20.900;2023-10-13T12:01:06;17.56;74.60
70676;DHT22;59069;52.242;20.900;2023-10-13T12:03:38;17.60;74.48
70676;DHT22;59069;52.242;20.900;2023-10-13T12:06:22;17.63;74.56
70676;DHT22;59069;52.242;20.900;2023-10-13T12:08:59;17.71;74.47
70676;DHT22;59069;52.242;20.900;2023-10-13T12:11:37;17.81;74.52
70676;DHT22;59069;52.242;20.900;2023-10-13T12:14:06;17.91;74.25
70676;DHT22;59069;52.242;20.900;2023-10-13T12:16:52;18.01;73.80
70676;DHT22;59069;52.242;20.900;2023-10-13T12:19:22;18.10;73.92
70676;DHT22;59069;52.242;20.900;2023-10-13T12:21:57;18.24;73.81
70676;DHT22;59069;52.242;20.900;2023-10-13T12:24:29;18.38;73.45
70676;DHT22;59069;52.242;20.900;2023-10-13T12:27:00;18.48;72.96
70676;DHT22;59069;52.242;20.900;2023-10-13T12:29:26;18.58;72.75
70676;DHT22;59069;52.242;20.900;2023-10-13T12:31:55;18.66;72.45
70676;DHT22;59069;52.242;20.900;2023-10-13T12:34:36;18.75;72.30
70676;DHT22;59069;52.242;20.900;2023-10-13T12:37:32;18.85;72.02
70676;DHT22;59069;52.242;20.900;2023-10-13T12:40:16;18.91;71.89
70676;DHT22;59069;52.242;20.900;2023-10-13T12:43:12;18.98;71.60
70676;DHT22;59069;52.242;20.900;2023-10-13T12:45:56;19.03;71.45
70676;DHT22;59069;52.242;20.900;2023-10-13T12:48:40;19.09;71.50
70676;DHT22;59069;52.242;20.900;2023-10-13T12:51:24;19.03;71.24
70676;DHT22;59069;52.242;20.900;2023-10-13T12:54:00;18.99;71.18
70676;DHT22;59069;52.242;20.900;2023-10-13T12:56:48;18.93;71.44
70676;DHT22;59069;52.242;20.900;2023-10-13T12:59:13;18.88;71.81
70676;DHT22;59069;52.242;20.900;2023-10-13T13:01:39;18.85;72.17
70676;DHT22;59069;52.242;20.900;2023-10-13T13:04:09;18.83;72.56
70676;DHT22;59069;52.242;20.900;2023-10-13T13:06:46;18.82;72.84
70676;DHT22;59069;52.242;20.900;2023-10-13T13:09:11;18.91;72.97
70676;DHT22;59069;52.242;20.900;2023-10-13T13:11:36;18.93;72.95
70676;DHT22;59069;52.242;20.900;2023-10-13T13:14:06;18.95;72.77
70676;DHT22;59069;52.242;20.900;2023-10-13T13:16:33;18.92;72.76
70676;DHT22;59069;52.242;20.900;2023-10-13T13:18:58;18.92;72.86
70676;DHT22;59069;52.242;20.900;2023-10-13T13:21:24;18.88;72.95
70676;DHT22;59069;52.242;20.900;2023-10-13T13:23:50;18.83;73.10
70676;DHT22;59069;52.242;20.900;2023-10-13T13:26:16;18.76;73.25
70676;DHT22;59069;52.242;20.900;2023-10-13T13:28:45;18.75;73.41
70676;DHT22;59069;52.242;20.900;2023-10-13T13:31:21;18.68;73.62
70676;DHT22;59069;52.242;20.900;2023-10-13T13:33:55;18.63;73.90
70676;DHT22;59069;52.242;20.900;2023-10-13T13:36:20;18.65;74.18
70676;DHT22;59069;52.242;20.900;2023-10-13T13:38:47;18.61;74.38
70676;DHT22;59069;52.242;20.900;2023-10-13T13:41:17;18.58;74.53
70676;DHT22;59069;52.242;20.900;2023-10-13T13:43:48;18.53;74.71
70676;DHT22;59069;52.242;20.900;2023-10-13T13:46:24;18.49;74.89
70676;DHT22;59069;52.242;20.900;2023-10-13T13:48:53;18.48;75.07
70676;DHT22;59069;52.242;20.900;2023-10-13T13:51:27;18.49;75.25
70676;DHT22;59069;52.242;20.900;2023-10-13T13:53:54;18.45;75.46
70676;DHT22;59069;52.242;20.900;2023-10-13T13:56:20;18.51;75.68
70676;DHT22;59069;52.242;20.900;2023-10-13T13:58:47;18.52;75.70
70676;DHT22;59069;52.242;20.900;2023-10-13T14:01:13;18.53;75.63
70676;DHT22;59069;52.242;20.900;2023-10-13T14:03:43;18.53;75.60
70676;DHT22;59069;52.242;20.900;2023-10-13T14:06:16;18.58;75.63
70676;DHT22;59069;52.242;20.900;2023-10-13T14:08:58;18.56;75.73
70676;DHT22;59069;52.242;20.900;2023-10-13T14:12:00;18.53;75.83
70676;DHT22;59069;52.242;20.900;2023-10-13T14:14:44;18.53;75.96
70676;DHT22;59069;52.242;20.900;2023-10-13T14:17:21;18.53;76.07
70676;DHT22;59069;52.242;20.900;2023-10-13T14:19:55;18.55;76.18
70676;DHT22;59069;52.242;20.900;2023-10-13T14:22:20;18.56;76.28
70676;DHT22;59069;52.242;20.900;2023-10-13T14:24:50;18.58;76.38
70676;DHT22;59069;52.242;20.900;2023-10-13T14:27:20;18.58;76.44
70676;DHT22;59069;52.242;20.900;2023-10-13T14:29:48;18.59;76.47
70676;DHT22;59069;52.242;20.900;2023-10-13T14:32:18;18.61;76.60
70676;DHT22;59069;52.242;20.900;2023-10-13T14:34:46;18.58;76.62
70676;DHT22;59069;52.242;20.900;2023-10-13T14:37:14;18.59;76.74
70676;DHT22;59069;52.242;20.900;2023-10-13T14:39:46;18.63;76.83
70676;DHT22;59069;52.242;20.900;2023-10-13T14:42:11;18.63;76.92
70676;DHT22;59069;52.242;20.900;2023-10-13T14:44:37;18.65;76.99
70676;DHT22;59069;52.242;20.900;2023-10-13T14:47:02;18.65;77.03
70676;DHT22;59069;52.242;20.900;2023-10-13T14:49:30;18.68;77.01
70676;DHT22;59069;52.242;20.900;2023-10-13T14:51:56;18.69;77.02
70676;DHT22;59069;52.242;20.900;2023-10-13T14:54:25;18.71;77.04
70676;DHT22;59069;52.242;20.900;2023-10-13T14:57:02;18.72;76.98
70676;DHT22;59069;52.242;20.900;2023-10-13T14:59:28;18.73;76.92
70676;DHT22;59069;52.242;20.900;2023-10-13T15:01:59;18.75;76.81
70676;DHT22;59069;52.242;20.900;2023-10-13T15:04:24;18.71;76.84
70676;DHT22;59069;52.242;20.900;2023-10-13T15:06:50;18.66;76.90
70676;DHT22;59069;52.242;20.900;2023-10-13T15:09:15;18.65;77.01
70676;DHT22;59069;52.242;20.900;2023-10-13T15:11:49;18.62;77.03
70676;DHT22;59069;52.242;20.900;2023-10-13T15:14:18;18.61;77.07
70676;DHT22;59069;52.242;20.900;2023-10-13T15:16:45;18.59;77.17
70676;DHT22;59069;52.242;20.900;2023-10-13T15:19:11;18.58;77.23
70676;DHT22;59069;52.242;20.900;2023-10-13T15:21:37;18.53;77.28
70676;DHT22;59069;52.242;20.900;2023-10-13T15:24:06;18.51;77.36
70676;DHT22;59069;52.242;20.900;2023-10-13T15:26:47;18.48;77.41
70676;DHT22;59069;52.242;20.900;2023-10-13T15:29:19;18.49;77.47
70676;DHT22;59069;52.242;20.900;2023-10-13T15:31:51;18.44;77.46
70676;DHT22;59069;52.242;20.900;2023-10-13T15:34:25;18.44;77.51
70676;DHT22;59069;52.242;20.900;2023-10-13T15:36:53;18.40;77.51
70676;DHT22;59069;52.242;20.900;2023-10-13T15:39:20;18.35;77.57
70676;DHT22;59069;52.242;20.900;2023-10-13T15:41:54;18.34;77.57
70676;DHT22;59069;52.242;20.900;2023-10-13T15:44:23;18.32;77.59
70676;DHT22;59069;52.242;20.900;2023-10-13T15:46:53;18.28;77.69
70676;DHT22;59069;52.242;20.900;2023-10-13T15:49:18;18.25;77.73
70676;DHT22;59069;52.242;20.900;2023-10-13T15:51:44;18.24;77.79
70676;DHT22;59069;52.242;20.900;2023-10-13T15:54:11;18.21;77.85
70676;DHT22;59069;52.242;20.900;2023-10-13T15:56:47;18.21;77.87
70676;DHT22;59069;52.242;20.900;2023-10-13T15:59:13;18.20;77.88
70676;DHT22;59069;52.242;20.900;2023-10-13T16:01:39;18.18;77.90
70676;DHT22;59069;52.242;20.900;2023-10-13T16:04:06;18.17;77.85
70676;DHT22;59069;52.242;20.900;2023-10-13T16:06:46;18.14;77.83
70676;DHT22;59069;52.242;20.900;2023-10-13T16:09:12;18.12;77.88
70676;DHT22;59069;52.242;20.900;2023-10-13T16:11:42;18.15;77.94
70676;DHT22;59069;52.242;20.900;2023-10-13T16:14:08;18.11;77.93
70676;DHT22;59069;52.242;20.900;2023-10-13T16:16:36;18.11;77.90
70676;DHT22;59069;52.242;20.900;2023-10-13T16:19:02;18.10;77.91
70676;DHT22;59069;52.242;20.900;2023-10-13T16:21:32;18.07;77.93
70676;DHT22;59069;52.242;20.900;2023-10-13T16:24:05;18.04;77.87
70676;DHT22;59069;52.242;20.900;2023-10-13T16:26:30;18.07;77.94
70676;DHT22;59069;52.242;20.900;2023-10-13T16:28:56;18.04;77.95
70676;DHT22;59069;52.242;20.900;2023-10-13T16:31:25;18.00;78.02